Terminal Aerodrome Forecast
Issued by NWS

Home | Current Version | Previous Version | Text Only | Print | Product List | Glossary Off
Versions: 1 2 3 4 5 6 7 8 9 10 11 12 13

000
FTUS43 KICT 200500
TAFHUT
TAF
KHUT 200520Z 2006/2106 17009KT P6SM SKC
     FM201500 22009KT P6SM FEW070
     FM210000 18005KT P6SM SCT080 BKN150=

USA.gov is the U.S. government's official web portal to all federal, state and local government web resources and services.